sensor_id;sensor_type;location;lat;lon;timestamp;pressure;altitude;pressure_sealevel;temperature;humidity
30875;BME280;17581;43.222;27.924;2022-12-29T00:01:18;102021.53;;;5.42;68.47
30875;BME280;17581;43.222;27.924;2022-12-29T00:03:46;102022.28;;;5.45;68.48
30875;BME280;17581;43.222;27.924;2022-12-29T00:06:11;102025.75;;;5.47;68.17
30875;BME280;17581;43.222;27.924;2022-12-29T00:08:36;102011.16;;;5.34;68.41
30875;BME280;17581;43.222;27.924;2022-12-29T00:11:13;102015.56;;;5.35;68.63
30875;BME280;17581;43.222;27.924;2022-12-29T00:13:39;102027.75;;;5.42;68.94
30875;BME280;17581;43.222;27.924;2022-12-29T00:16:23;102010.22;;;5.35;68.73
30875;BME280;17581;43.222;27.924;2022-12-29T00:18:49;102011.22;;;5.33;68.74
30875;BME280;17581;43.222;27.924;2022-12-29T00:21:16;102024.41;;;5.37;69.31
30875;BME280;17581;43.222;27.924;2022-12-29T00:24:00;102014.19;;;5.25;69.35
30875;BME280;17581;43.222;27.924;2022-12-29T00:26:46;102028.09;;;5.33;69.69
30875;BME280;17581;43.222;27.924;2022-12-29T00:29:30;102033.50;;;5.32;69.70
30875;BME280;17581;43.222;27.924;2022-12-29T00:32:14;102017.75;;;5.24;69.79
30875;BME280;17581;43.222;27.924;2022-12-29T00:34:58;102021.06;;;5.31;69.66
30875;BME280;17581;43.222;27.924;2022-12-29T00:37:38;102013.94;;;5.31;70.02
30875;BME280;17581;43.222;27.924;2022-12-29T00:40:24;102012.44;;;5.24;69.79
30875;BME280;17581;43.222;27.924;2022-12-29T00:43:08;102015.56;;;5.35;70.02
30875;BME280;17581;43.222;27.924;2022-12-29T00:45:52;102013.72;;;5.37;70.09
30875;BME280;17581;43.222;27.924;2022-12-29T00:48:17;102023.09;;;5.24;70.08
30875;BME280;17581;43.222;27.924;2022-12-29T00:51:02;102018.00;;;5.18;70.52
30875;BME280;17581;43.222;27.924;2022-12-29T00:53:27;102015.06;;;5.26;70.49
30875;BME280;17581;43.222;27.924;2022-12-29T00:55:53;102018.63;;;5.25;70.73
30875;BME280;17581;43.222;27.924;2022-12-29T00:58:18;102005.34;;;5.23;70.51
30875;BME280;17581;43.222;27.924;2022-12-29T01:00:43;102013.94;;;5.31;70.74
30875;BME280;17581;43.222;27.924;2022-12-29T01:03:09;102007.66;;;5.32;70.84
30875;BME280;17581;43.222;27.924;2022-12-29T01:05:37;101993.06;;;5.19;71.28
30875;BME280;17581;43.222;27.924;2022-12-29T01:08:03;101999.91;;;5.26;71.10
30875;BME280;17581;43.222;27.924;2022-12-29T01:10:29;101981.09;;;5.29;71.00
30875;BME280;17581;43.222;27.924;2022-12-29T01:12:54;101981.06;;;5.31;70.85
30875;BME280;17581;43.222;27.924;2022-12-29T01:15:20;101982.06;;;5.28;70.95
30875;BME280;17581;43.222;27.924;2022-12-29T01:17:45;101983.66;;;5.32;71.07
30875;BME280;17581;43.222;27.924;2022-12-29T01:20:11;101986.41;;;5.31;71.37
30875;BME280;17581;43.222;27.924;2022-12-29T01:22:37;101971.31;;;5.30;71.62
30875;BME280;17581;43.222;27.924;2022-12-29T01:25:03;101959.78;;;5.29;71.00
30875;BME280;17581;43.222;27.924;2022-12-29T01:27:29;101969.16;;;5.39;71.21
30875;BME280;17581;43.222;27.924;2022-12-29T01:29:55;101964.50;;;5.44;70.83
30875;BME280;17581;43.222;27.924;2022-12-29T01:32:20;101964.50;;;5.44;71.08
30875;BME280;17581;43.222;27.924;2022-12-29T01:34:45;101961.25;;;5.38;71.09
30875;BME280;17581;43.222;27.924;2022-12-29T01:37:11;101951.53;;;5.35;71.27
30875;BME280;17581;43.222;27.924;2022-12-29T01:39:37;101953.03;;;5.42;71.04
30875;BME280;17581;43.222;27.924;2022-12-29T01:42:02;101940.50;;;5.44;71.05
30875;BME280;17581;43.222;27.924;2022-12-29T01:44:56;101928.00;;;5.46;71.09
30875;BME280;17581;43.222;27.924;2022-12-29T01:47:30;101919.50;;;5.35;71.23
30875;BME280;17581;43.222;27.924;2022-12-29T01:49:59;101931.13;;;5.34;71.35
30875;BME280;17581;43.222;27.924;2022-12-29T01:52:28;101931.13;;;5.34;71.27
30875;BME280;17581;43.222;27.924;2022-12-29T01:54:55;101916.06;;;5.33;71.52
30875;BME280;17581;43.222;27.924;2022-12-29T01:57:27;101913.34;;;5.35;71.57
30875;BME280;17581;43.222;27.924;2022-12-29T01:59:57;101915.19;;;5.33;71.62
30875;BME280;17581;43.222;27.924;2022-12-29T02:02:25;101907.38;;;5.28;71.72
30875;BME280;17581;43.222;27.924;2022-12-29T02:04:51;101910.16;;;5.25;71.95
30875;BME280;17581;43.222;27.924;2022-12-29T02:07:20;101910.16;;;5.25;71.95
30875;BME280;17581;43.222;27.924;2022-12-29T02:09:47;101899.53;;;5.24;72.49
30875;BME280;17581;43.222;27.924;2022-12-29T02:12:14;101905.63;;;5.27;72.36
30875;BME280;17581;43.222;27.924;2022-12-29T02:14:40;101900.16;;;5.30;72.40
30875;BME280;17581;43.222;27.924;2022-12-29T02:17:10;101913.16;;;5.39;72.00
30875;BME280;17581;43.222;27.924;2022-12-29T02:36:24;101897.41;;;5.10;73.33
30875;BME280;17581;43.222;27.924;2022-12-29T02:41:58;101892.81;;;5.14;73.83
30875;BME280;17581;43.222;27.924;2022-12-29T02:49:54;101884.75;;;5.15;74.33
30875;BME280;17581;43.222;27.924;2022-12-29T02:52:27;101872.59;;;5.08;74.39
30875;BME280;17581;43.222;27.924;2022-12-29T02:54:58;101877.06;;;5.08;74.47
30875;BME280;17581;43.222;27.924;2022-12-29T03:00:12;101886.50;;;5.16;74.66
30875;BME280;17581;43.222;27.924;2022-12-29T03:21:45;101873.19;;;5.16;75.00
30875;BME280;17581;43.222;27.924;2022-12-29T03:24:35;101872.31;;;5.16;75.13
30875;BME280;17581;43.222;27.924;2022-12-29T03:27:05;101872.09;;;5.20;75.16
30875;BME280;17581;43.222;27.924;2022-12-29T03:29:36;101875.72;;;5.19;75.24
30875;BME280;17581;43.222;27.924;2022-12-29T03:32:05;101879.56;;;5.12;75.38
30875;BME280;17581;43.222;27.924;2022-12-29T03:34:33;101883.53;;;5.24;75.13
30875;BME280;17581;43.222;27.924;2022-12-29T03:37:06;101895.94;;;5.25;75.25
30875;BME280;17581;43.222;27.924;2022-12-29T03:39:34;101890.84;;;5.19;75.33
30875;BME280;17581;43.222;27.924;2022-12-29T03:42:05;101889.88;;;5.21;75.11
30875;BME280;17581;43.222;27.924;2022-12-29T03:44:37;101902.19;;;5.24;74.83
30875;BME280;17581;43.222;27.924;2022-12-29T03:47:03;101899.78;;;5.18;75.29
30875;BME280;17581;43.222;27.924;2022-12-29T03:49:29;101906.66;;;5.23;75.38
30875;BME280;17581;43.222;27.924;2022-12-29T03:51:54;101898.53;;;5.26;75.64
30875;BME280;17581;43.222;27.924;2022-12-29T03:54:20;101909.22;;;5.26;75.53
30875;BME280;17581;43.222;27.924;2022-12-29T03:56:45;101902.41;;;5.19;75.11
30875;BME280;17581;43.222;27.924;2022-12-29T03:59:11;101908.66;;;5.18;75.60
30875;BME280;17581;43.222;27.924;2022-12-29T04:01:36;101899.13;;;5.11;75.72
30875;BME280;17581;43.222;27.924;2022-12-29T04:04:02;101915.00;;;5.14;76.16
30875;BME280;17581;43.222;27.924;2022-12-29T04:06:27;101915.78;;;5.18;76.39
30875;BME280;17581;43.222;27.924;2022-12-29T04:08:53;101921.97;;;5.18;76.52
30875;BME280;17581;43.222;27.924;2022-12-29T04:11:18;101922.63;;;5.25;76.66
30875;BME280;17581;43.222;27.924;2022-12-29T04:13:43;101911.03;;;5.26;76.67
30875;BME280;17581;43.222;27.924;2022-12-29T04:16:09;101925.22;;;5.26;76.41
30875;BME280;17581;43.222;27.924;2022-12-29T04:18:34;101917.16;;;5.28;76.37
30875;BME280;17581;43.222;27.924;2022-12-29T04:21:00;101911.94;;;5.25;76.66
30875;BME280;17581;43.222;27.924;2022-12-29T04:23:27;101922.31;;;5.32;76.42
30875;BME280;17581;43.222;27.924;2022-12-29T04:25:52;101919.75;;;5.29;76.32
30875;BME280;17581;43.222;27.924;2022-12-29T04:28:18;101918.91;;;5.29;76.47
30875;BME280;17581;43.222;27.924;2022-12-29T04:30:44;101917.91;;;5.31;76.28
30875;BME280;17581;43.222;27.924;2022-12-29T04:33:10;101921.50;;;5.30;76.44
30875;BME280;17581;43.222;27.924;2022-12-29T04:35:36;101912.81;;;5.25;76.69
30875;BME280;17581;43.222;27.924;2022-12-29T04:38:01;101927.59;;;5.34;76.69
30875;BME280;17581;43.222;27.924;2022-12-29T04:40:27;101920.03;;;5.45;76.53
30875;BME280;17581;43.222;27.924;2022-12-29T04:42:52;101906.66;;;5.46;76.37
30875;BME280;17581;43.222;27.924;2022-12-29T04:45:18;101912.78;;;5.48;76.22
30875;BME280;17581;43.222;27.924;2022-12-29T04:47:43;101916.25;;;5.50;76.13
30875;BME280;17581;43.222;27.924;2022-12-29T04:50:09;101924.25;;;5.50;76.01
30875;BME280;17581;43.222;27.924;2022-12-29T04:52:35;101927.88;;;5.49;75.68
30875;BME280;17581;43.222;27.924;2022-12-29T04:55:01;101919.03;;;5.47;75.99
30875;BME280;17581;43.222;27.924;2022-12-29T04:57:26;101912.72;;;5.50;75.96
30875;BME280;17581;43.222;27.924;2022-12-29T04:59:52;101918.91;;;5.50;75.98
30875;BME280;17581;43.222;27.924;2022-12-29T05:02:18;101917.19;;;5.49;75.64
30875;BME280;17581;43.222;27.924;2022-12-29T05:04:43;101923.41;;;5.50;75.76
30875;BME280;17581;43.222;27.924;2022-12-29T05:07:09;101925.31;;;5.46;75.85
30875;BME280;17581;43.222;27.924;2022-12-29T05:09:34;101933.56;;;5.40;76.26
30875;BME280;17581;43.222;27.924;2022-12-29T05:12:00;101920.34;;;5.37;76.79
30875;BME280;17581;43.222;27.924;2022-12-29T05:14:25;101924.50;;;5.44;76.81
30875;BME280;17581;43.222;27.924;2022-12-29T05:16:51;101907.75;;;5.41;76.93
30875;BME280;17581;43.222;27.924;2022-12-29T05:19:16;101919.03;;;5.47;76.53
30875;BME280;17581;43.222;27.924;2022-12-29T05:21:42;101919.09;;;5.46;77.22
30875;BME280;17581;43.222;27.924;2022-12-29T05:24:08;101909.47;;;5.42;76.84
30875;BME280;17581;43.222;27.924;2022-12-29T05:26:33;101916.38;;;5.47;76.64
30875;BME280;17581;43.222;27.924;2022-12-29T05:28:59;101914.44;;;5.51;76.93
30875;BME280;17581;43.222;27.924;2022-12-29T05:31:25;101915.31;;;5.52;76.76
30875;BME280;17581;43.222;27.924;2022-12-29T05:33:51;101923.16;;;5.56;76.76
30875;BME280;17581;43.222;27.924;2022-12-29T05:36:16;101908.88;;;5.57;76.99
30875;BME280;17581;43.222;27.924;2022-12-29T05:38:42;101908.75;;;5.60;76.46
30875;BME280;17581;43.222;27.924;2022-12-29T05:41:07;101924.50;;;5.66;76.66
30875;BME280;17581;43.222;27.924;2022-12-29T05:43:33;101920.03;;;5.67;76.28
30875;BME280;17581;43.222;27.924;2022-12-29T05:45:58;101906.28;;;5.56;76.33
30875;BME280;17581;43.222;27.924;2022-12-29T05:48:24;101915.81;;;5.61;76.23
30875;BME280;17581;43.222;27.924;2022-12-29T05:50:50;101920.28;;;5.61;76.38
30875;BME280;17581;43.222;27.924;2022-12-29T05:53:16;101930.16;;;5.59;76.76
30875;BME280;17581;43.222;27.924;2022-12-29T05:55:45;101912.47;;;5.56;76.80
30875;BME280;17581;43.222;27.924;2022-12-29T05:58:11;101923.75;;;5.63;76.59
30875;BME280;17581;43.222;27.924;2022-12-29T06:00:37;101932.59;;;5.65;76.78
30875;BME280;17581;43.222;27.924;2022-12-29T06:03:02;101921.91;;;5.65;76.98
30875;BME280;17581;43.222;27.924;2022-12-29T06:05:28;101929.56;;;5.74;76.72
30875;BME280;17581;43.222;27.924;2022-12-29T06:07:53;101922.47;;;5.73;76.61
30875;BME280;17581;43.222;27.924;2022-12-29T06:10:19;101933.84;;;5.78;76.52
30875;BME280;17581;43.222;27.924;2022-12-29T06:12:44;101928.50;;;5.78;76.58
30875;BME280;17581;43.222;27.924;2022-12-29T06:15:10;101932.72;;;5.83;76.53
30875;BME280;17581;43.222;27.924;2022-12-29T06:17:36;101922.16;;;5.80;76.40
30875;BME280;17581;43.222;27.924;2022-12-29T06:20:02;101931.75;;;5.86;76.63
30875;BME280;17581;43.222;27.924;2022-12-29T06:22:28;101936.03;;;5.90;76.86
30875;BME280;17581;43.222;27.924;2022-12-29T06:24:53;101927.19;;;5.88;76.81
30875;BME280;17581;43.222;27.924;2022-12-29T06:27:19;101929.75;;;5.91;77.13
30875;BME280;17581;43.222;27.924;2022-12-29T06:29:44;101932.00;;;6.01;77.19
30875;BME280;17581;43.222;27.924;2022-12-29T06:32:10;101929.97;;;6.07;77.26
30875;BME280;17581;43.222;27.924;2022-12-29T06:34:35;101928.72;;;6.15;77.23
30875;BME280;17581;43.222;27.924;2022-12-29T06:37:01;101939.41;;;6.15;76.66
30875;BME280;17581;43.222;27.924;2022-12-29T06:39:27;101946.25;;;6.22;77.16
30875;BME280;17581;43.222;27.924;2022-12-29T06:41:53;101922.97;;;6.24;77.01
30875;BME280;17581;43.222;27.924;2022-12-29T06:44:20;101944.66;;;6.38;77.22
30875;BME280;17581;43.222;27.924;2022-12-29T06:46:46;101936.38;;;6.44;77.06
30875;BME280;17581;43.222;27.924;2022-12-29T06:49:11;101935.84;;;6.56;76.88
30875;BME280;17581;43.222;27.924;2022-12-29T06:51:37;101924.88;;;6.63;76.73
30875;BME280;17581;43.222;27.924;2022-12-29T06:54:02;101920.13;;;6.69;76.48
30875;BME280;17581;43.222;27.924;2022-12-29T06:56:28;101910.03;;;6.76;76.90
30875;BME280;17581;43.222;27.924;2022-12-29T06:58:53;101919.00;;;6.93;76.63
30875;BME280;17581;43.222;27.924;2022-12-29T07:01:18;101910.56;;;7.02;76.49
30875;BME280;17581;43.222;27.924;2022-12-29T07:03:44;101922.34;;;7.17;76.36
30875;BME280;17581;43.222;27.924;2022-12-29T07:06:09;101918.19;;;7.30;76.17
30875;BME280;17581;43.222;27.924;2022-12-29T07:08:35;101915.78;;;7.43;76.16
30875;BME280;17581;43.222;27.924;2022-12-29T07:11:00;101920.47;;;7.56;75.79
30875;BME280;17581;43.222;27.924;2022-12-29T07:13:26;101910.31;;;7.63;75.49
30875;BME280;17581;43.222;27.924;2022-12-29T07:15:51;101917.41;;;7.83;75.59
30875;BME280;17581;43.222;27.924;2022-12-29T07:18:17;101898.41;;;7.87;75.35
30875;BME280;17581;43.222;27.924;2022-12-29T07:20:42;101914.72;;;8.00;75.12
30875;BME280;17581;43.222;27.924;2022-12-29T07:23:08;101915.75;;;8.14;74.39
30875;BME280;17581;43.222;27.924;2022-12-29T07:25:33;101920.75;;;8.22;74.33
30875;BME280;17581;43.222;27.924;2022-12-29T07:28:02;101918.13;;;8.20;74.57
30875;BME280;17581;43.222;27.924;2022-12-29T07:30:28;101916.66;;;8.32;74.84
30875;BME280;17581;43.222;27.924;2022-12-29T07:32:53;101924.38;;;8.38;74.38
30875;BME280;17581;43.222;27.924;2022-12-29T07:35:19;101908.16;;;8.41;74.40
30875;BME280;17581;43.222;27.924;2022-12-29T07:37:44;101904.78;;;8.38;73.87
30875;BME280;17581;43.222;27.924;2022-12-29T07:40:11;101918.56;;;8.47;73.70
30875;BME280;17581;43.222;27.924;2022-12-29T07:42:36;101922.66;;;8.54;73.28
30875;BME280;17581;43.222;27.924;2022-12-29T07:45:02;101913.34;;;8.61;73.36
30875;BME280;17581;43.222;27.924;2022-12-29T07:47:28;101923.09;;;8.80;72.85
30875;BME280;17581;43.222;27.924;2022-12-29T07:49:53;101912.28;;;8.81;72.54
30875;BME280;17581;43.222;27.924;2022-12-29T07:52:18;101926.53;;;8.99;72.25
30875;BME280;17581;43.222;27.924;2022-12-29T07:54:44;101925.41;;;9.03;71.85
30875;BME280;17581;43.222;27.924;2022-12-29T07:57:10;101907.25;;;9.08;71.22
30875;BME280;17581;43.222;27.924;2022-12-29T07:59:35;101924.91;;;9.12;70.94
30875;BME280;17581;43.222;27.924;2022-12-29T08:02:01;101906.41;;;9.23;70.79
30875;BME280;17581;43.222;27.924;2022-12-29T08:04:26;101903.81;;;9.37;70.15
30875;BME280;17581;43.222;27.924;2022-12-29T08:06:52;101905.38;;;9.41;69.81
30875;BME280;17581;43.222;27.924;2022-12-29T08:09:17;101925.19;;;9.54;69.46
30875;BME280;17581;43.222;27.924;2022-12-29T08:11:43;101919.06;;;9.68;69.07
30875;BME280;17581;43.222;27.924;2022-12-29T08:14:09;101915.56;;;9.81;68.58
30875;BME280;17581;43.222;27.924;2022-12-29T08:16:35;101912.09;;;9.95;68.35
30875;BME280;17581;43.222;27.924;2022-12-29T08:19:00;101913.31;;;9.90;67.80
30875;BME280;17581;43.222;27.924;2022-12-29T08:21:29;101913.50;;;9.87;67.10
30875;BME280;17581;43.222;27.924;2022-12-29T08:23:55;101914.78;;;9.95;66.81
30875;BME280;17581;43.222;27.924;2022-12-29T08:26:21;101917.44;;;10.11;66.73
30875;BME280;17581;43.222;27.924;2022-12-29T08:28:46;101914.41;;;10.17;66.49
30875;BME280;17581;43.222;27.924;2022-12-29T08:31:12;101915.25;;;10.33;66.08
30875;BME280;17581;43.222;27.924;2022-12-29T08:33:37;101909.13;;;10.45;65.67
30875;BME280;17581;43.222;27.924;2022-12-29T08:36:05;101915.25;;;10.47;65.10
30875;BME280;17581;43.222;27.924;2022-12-29T08:38:31;101917.91;;;10.63;64.45
30875;BME280;17581;43.222;27.924;2022-12-29T08:40:58;101909.75;;;10.78;64.23
30875;BME280;17581;43.222;27.924;2022-12-29T08:43:24;101894.34;;;10.80;63.79
30875;BME280;17581;43.222;27.924;2022-12-29T08:45:50;101907.84;;;10.95;63.30
30875;BME280;17581;43.222;27.924;2022-12-29T08:48:15;101884.06;;;11.01;62.94
30875;BME280;17581;43.222;27.924;2022-12-29T08:50:45;101893.97;;;11.15;62.36
30875;BME280;17581;43.222;27.924;2022-12-29T08:53:11;101893.94;;;11.29;61.92
30875;BME280;17581;43.222;27.924;2022-12-29T08:55:37;101896.28;;;11.21;62.14
30875;BME280;17581;43.222;27.924;2022-12-29T08:58:02;101887.16;;;11.09;61.72
30875;BME280;17581;43.222;27.924;2022-12-29T09:00:27;101892.94;;;11.03;61.86
30875;BME280;17581;43.222;27.924;2022-12-29T09:02:53;101865.50;;;11.11;61.64
30875;BME280;17581;43.222;27.924;2022-12-29T09:05:18;101881.28;;;11.31;61.74
30875;BME280;17581;43.222;27.924;2022-12-29T09:07:44;101873.25;;;11.43;61.34
30875;BME280;17581;43.222;27.924;2022-12-29T09:10:09;101879.06;;;11.64;60.86
30875;BME280;17581;43.222;27.924;2022-12-29T09:12:35;101867.50;;;11.76;60.46
30875;BME280;17581;43.222;27.924;2022-12-29T09:15:00;101863.41;;;11.83;59.65
30875;BME280;17581;43.222;27.924;2022-12-29T09:17:26;101859.34;;;11.90;59.35
30875;BME280;17581;43.222;27.924;2022-12-29T09:20:13;101867.38;;;12.05;59.18
30875;BME280;17581;43.222;27.924;2022-12-29T09:22:39;101867.50;;;12.16;58.81
30875;BME280;17581;43.222;27.924;2022-12-29T09:25:04;101869.56;;;12.25;58.37
30875;BME280;17581;43.222;27.924;2022-12-29T09:27:30;101861.56;;;12.23;58.12
30875;BME280;17581;43.222;27.924;2022-12-29T09:29:56;101852.22;;;12.29;57.91
30875;BME280;17581;43.222;27.924;2022-12-29T09:32:21;101863.97;;;12.28;57.02
30875;BME280;17581;43.222;27.924;2022-12-29T09:34:47;101861.47;;;12.25;57.94
30875;BME280;17581;43.222;27.924;2022-12-29T09:37:12;101868.91;;;12.21;57.56
30875;BME280;17581;43.222;27.924;2022-12-29T09:39:38;101864.41;;;12.22;58.00
30875;BME280;17581;43.222;27.924;2022-12-29T09:42:11;101866.53;;;12.29;57.55
30875;BME280;17581;43.222;27.924;2022-12-29T09:45:15;101855.34;;;12.23;57.50
30875;BME280;17581;43.222;27.924;2022-12-29T09:47:44;101846.47;;;12.21;57.37
30875;BME280;17581;43.222;27.924;2022-12-29T09:50:27;101841.53;;;12.27;57.53
30875;BME280;17581;43.222;27.924;2022-12-29T09:55:29;101836.16;;;12.40;57.38
30875;BME280;17581;43.222;27.924;2022-12-29T09:58:02;101835.28;;;12.52;57.40
30875;BME280;17581;43.222;27.924;2022-12-29T10:00:50;101837.63;;;12.69;57.20
30875;BME280;17581;43.222;27.924;2022-12-29T10:03:20;101832.47;;;12.66;56.37
30875;BME280;17581;43.222;27.924;2022-12-29T10:05:50;101825.78;;;12.72;56.63
30875;BME280;17581;43.222;27.924;2022-12-29T10:08:26;101826.19;;;12.78;56.18
30875;BME280;17581;43.222;27.924;2022-12-29T10:10:58;101823.69;;;12.88;56.35
30875;BME280;17581;43.222;27.924;2022-12-29T10:13:57;101793.13;;;12.87;56.06
30875;BME280;17581;43.222;27.924;2022-12-29T10:16:40;101811.81;;;12.90;55.65
30875;BME280;17581;43.222;27.924;2022-12-29T10:19:39;101808.47;;;12.99;55.72
30875;BME280;17581;43.222;27.924;2022-12-29T10:22:12;101808.44;;;13.12;55.33
30875;BME280;17581;43.222;27.924;2022-12-29T10:24:47;101805.00;;;13.10;55.06
30875;BME280;17581;43.222;27.924;2022-12-29T10:27:15;101791.63;;;12.83;55.37
30875;BME280;17581;43.222;27.924;2022-12-29T10:29:52;101786.25;;;12.83;55.73
30875;BME280;17581;43.222;27.924;2022-12-29T10:32:37;101789.66;;;12.98;55.81
30875;BME280;17581;43.222;27.924;2022-12-29T10:35:11;101772.59;;;12.97;55.56
30875;BME280;17581;43.222;27.924;2022-12-29T10:38:01;101783.69;;;13.18;55.44
30875;BME280;17581;43.222;27.924;2022-12-29T10:40:32;101779.47;;;13.27;55.09
30875;BME280;17581;43.222;27.924;2022-12-29T10:43:12;101769.47;;;13.27;54.58
30875;BME280;17581;43.222;27.924;2022-12-29T10:45:40;101784.56;;;13.42;54.34
30875;BME280;17581;43.222;27.924;2022-12-29T10:48:09;101770.94;;;13.44;54.72
30875;BME280;17581;43.222;27.924;2022-12-29T10:50:37;101774.16;;;13.49;54.05
30875;BME280;17581;43.222;27.924;2022-12-29T10:53:15;101761.63;;;13.48;54.20
30875;BME280;17581;43.222;27.924;2022-12-29T10:55:43;101761.16;;;13.54;54.17
30875;BME280;17581;43.222;27.924;2022-12-29T10:58:12;101771.75;;;13.57;54.05
30875;BME280;17581;43.222;27.924;2022-12-29T11:00:38;101782.56;;;13.57;54.29
30875;BME280;17581;43.222;27.924;2022-12-29T11:05:59;101770.25;;;13.53;54.46
30875;BME280;17581;43.222;27.924;2022-12-29T11:08:33;101764.59;;;13.56;55.13
30875;BME280;17581;43.222;27.924;2022-12-29T11:11:06;101769.38;;;13.52;55.43
30875;BME280;17581;43.222;27.924;2022-12-29T11:13:47;101769.50;;;13.51;55.74
30875;BME280;17581;43.222;27.924;2022-12-29T11:16:12;101765.53;;;13.44;55.81
30875;BME280;17581;43.222;27.924;2022-12-29T11:18:39;101756.97;;;13.26;56.67
30875;BME280;17581;43.222;27.924;2022-12-29T11:21:09;101761.78;;;12.97;57.47
30875;BME280;17581;43.222;27.924;2022-12-29T11:24:04;101764.81;;;13.05;57.75
30875;BME280;17581;43.222;27.924;2022-12-29T11:26:31;101753.13;;;13.18;57.31
30875;BME280;17581;43.222;27.924;2022-12-29T11:31:45;101746.88;;;13.04;59.34
30875;BME280;17581;43.222;27.924;2022-12-29T11:34:37;101742.41;;;12.80;59.84
30875;BME280;17581;43.222;27.924;2022-12-29T11:37:29;101754.72;;;12.84;61.02
30875;BME280;17581;43.222;27.924;2022-12-29T11:40:02;101759.25;;;12.83;62.05
30875;BME280;17581;43.222;27.924;2022-12-29T11:42:48;101742.66;;;12.64;61.86
30875;BME280;17581;43.222;27.924;2022-12-29T11:45:19;101739.84;;;12.66;62.40
30875;BME280;17581;43.222;27.924;2022-12-29T11:48:18;101750.38;;;12.81;62.31
30875;BME280;17581;43.222;27.924;2022-12-29T11:50:50;101752.75;;;12.86;62.15
30875;BME280;17581;43.222;27.924;2022-12-29T11:53:20;101749.91;;;12.87;62.20
30875;BME280;17581;43.222;27.924;2022-12-29T11:55:58;101741.69;;;12.65;62.93
30875;BME280;17581;43.222;27.924;2022-12-29T11:58:43;101740.25;;;12.72;63.75
30875;BME280;17581;43.222;27.924;2022-12-29T12:06:24;101741.75;;;12.76;65.36
30875;BME280;17581;43.222;27.924;2022-12-29T12:08:55;101735.47;;;12.76;65.62
30875;BME280;17581;43.222;27.924;2022-12-29T12:11:28;101736.00;;;12.93;64.37
30875;BME280;17581;43.222;27.924;2022-12-29T12:14:20;101731.63;;;13.03;63.84
30875;BME280;17581;43.222;27.924;2022-12-29T12:16:54;101731.25;;;12.84;64.81
30875;BME280;17581;43.222;27.924;2022-12-29T12:21:53;101723.38;;;12.81;66.06
30875;BME280;17581;43.222;27.924;2022-12-29T12:30:15;101717.94;;;12.45;66.60
30875;BME280;17581;43.222;27.924;2022-12-29T12:32:55;101716.78;;;12.24;66.08
30875;BME280;17581;43.222;27.924;2022-12-29T12:35:37;101707.66;;;12.14;66.49
30875;BME280;17581;43.222;27.924;2022-12-29T12:39:06;101725.00;;;12.22;66.99
30875;BME280;17581;43.222;27.924;2022-12-29T12:50:49;101721.22;;;11.99;70.14
30875;BME280;17581;43.222;27.924;2022-12-29T12:59:14;101730.38;;;11.84;70.90
30875;BME280;17581;43.222;27.924;2022-12-29T13:02:09;101719.72;;;11.56;72.19
30875;BME280;17581;43.222;27.924;2022-12-29T13:07:37;101733.50;;;11.52;73.20
30875;BME280;17581;43.222;27.924;2022-12-29T13:10:19;101716.16;;;11.43;73.06
30875;BME280;17581;43.222;27.924;2022-12-29T13:21:05;101705.75;;;11.24;74.84
30875;BME280;17581;43.222;27.924;2022-12-29T13:23:46;101727.41;;;11.35;75.19
30875;BME280;17581;43.222;27.924;2022-12-29T13:26:43;101726.13;;;11.41;75.50
30875;BME280;17581;43.222;27.924;2022-12-29T13:31:50;101728.50;;;11.33;75.82
30875;BME280;17581;43.222;27.924;2022-12-29T13:34:42;101729.81;;;11.40;76.35
30875;BME280;17581;43.222;27.924;2022-12-29T13:37:17;101728.63;;;11.44;75.62
30875;BME280;17581;43.222;27.924;2022-12-29T13:39:55;101730.69;;;11.40;76.05
30875;BME280;17581;43.222;27.924;2022-12-29T13:42:22;101728.34;;;11.22;76.67
30875;BME280;17581;43.222;27.924;2022-12-29T13:45:02;101732.97;;;11.20;77.36
30875;BME280;17581;43.222;27.924;2022-12-29T13:47:42;101731.06;;;11.22;77.68
30875;BME280;17581;43.222;27.924;2022-12-29T13:50:17;101729.06;;;11.11;78.09
30875;BME280;17581;43.222;27.924;2022-12-29T13:52:51;101734.16;;;11.16;78.25
30875;BME280;17581;43.222;27.924;2022-12-29T13:55:58;101730.84;;;11.25;78.43
30875;BME280;17581;43.222;27.924;2022-12-29T14:03:50;101724.22;;;11.43;77.28
30875;BME280;17581;43.222;27.924;2022-12-29T14:06:32;101731.69;;;11.52;76.73
30875;BME280;17581;43.222;27.924;2022-12-29T14:09:04;101721.78;;;11.53;76.79
30875;BME280;17581;43.222;27.924;2022-12-29T14:11:33;101717.34;;;11.52;76.74
30875;BME280;17581;43.222;27.924;2022-12-29T14:14:11;101705.16;;;11.46;76.30
30875;BME280;17581;43.222;27.924;2022-12-29T14:16:38;101719.72;;;11.56;76.89
30875;BME280;17581;43.222;27.924;2022-12-29T14:19:09;101722.09;;;11.61;76.71
30875;BME280;17581;43.222;27.924;2022-12-29T14:21:37;101730.06;;;11.62;75.91
30875;BME280;17581;43.222;27.924;2022-12-29T14:26:56;101722.84;;;11.63;75.67
30875;BME280;17581;43.222;27.924;2022-12-29T14:31:53;101716.59;;;11.62;75.26
30875;BME280;17581;43.222;27.924;2022-12-29T14:34:30;101710.59;;;11.59;75.34
30875;BME280;17581;43.222;27.924;2022-12-29T14:37:02;101715.19;;;11.57;75.37
30875;BME280;17581;43.222;27.924;2022-12-29T14:47:40;101710.09;;;11.39;75.31
30875;BME280;17581;43.222;27.924;2022-12-29T14:50:36;101703.84;;;11.39;75.17
30875;BME280;17581;43.222;27.924;2022-12-29T14:53:05;101713.75;;;11.38;75.46
30875;BME280;17581;43.222;27.924;2022-12-29T14:55:38;101705.66;;;11.38;75.30
30875;BME280;17581;43.222;27.924;2022-12-29T14:58:12;101721.38;;;11.32;75.61